createdAt,value
2023-01-25T00:00:09.354Z,17.90
2023-01-25T00:00:19.428Z,17.50
2023-01-25T00:00:29.598Z,17.30
2023-01-25T00:00:39.616Z,17.20
2023-01-25T00:00:49.702Z,17.70
2023-01-25T00:00:59.776Z,17.60
2023-01-25T00:01:09.897Z,17.90
2023-01-25T00:01:19.997Z,18.00
2023-01-25T00:01:30.073Z,18.30
2023-01-25T00:01:40.169Z,19.00
2023-01-25T00:01:50.273Z,19.00
2023-01-25T00:02:00.422Z,18.50
2023-01-25T00:02:10.561Z,17.90
2023-01-25T00:02:20.743Z,17.40
2023-01-25T00:02:30.725Z,18.00
2023-01-25T00:02:40.834Z,18.30
2023-01-25T00:02:51.925Z,18.30
2023-01-25T00:03:01.070Z,18.50
2023-01-25T00:03:11.104Z,18.30
2023-01-25T00:03:21.219Z,18.00
2023-01-25T00:03:31.243Z,17.40
2023-01-25T00:03:41.336Z,17.80
2023-01-25T00:03:51.403Z,18.20
2023-01-25T00:04:01.487Z,18.10
2023-01-25T00:04:11.574Z,17.80
2023-01-25T00:04:21.674Z,17.50
2023-01-25T00:04:31.783Z,16.60
2023-01-25T00:04:41.892Z,16.30
2023-01-25T00:04:51.978Z,16.40
2023-01-25T00:05:02.085Z,17.20
2023-01-25T00:05:12.193Z,17.30
2023-01-25T00:05:22.303Z,17.40
2023-01-25T00:05:32.422Z,16.90
2023-01-25T00:05:42.492Z,16.40
2023-01-25T00:05:52.573Z,16.70
2023-01-25T00:06:02.672Z,17.20
2023-01-25T00:06:12.755Z,17.90
2023-01-25T00:06:22.863Z,17.70
2023-01-25T00:06:32.963Z,17.40
2023-01-25T00:06:43.103Z,17.10
2023-01-25T00:06:53.206Z,16.80
2023-01-25T00:07:03.340Z,17.40
2023-01-25T00:07:13.442Z,17.10
2023-01-25T00:07:23.522Z,18.00
2023-01-25T00:07:33.593Z,17.70
2023-01-25T00:07:43.683Z,17.80
2023-01-25T00:07:53.765Z,18.30
2023-01-25T00:08:03.874Z,18.40
2023-01-25T00:08:13.989Z,19.40
2023-01-25T00:08:24.063Z,18.90
2023-01-25T00:08:34.159Z,19.40
2023-01-25T00:08:44.285Z,18.50
2023-01-25T00:08:54.402Z,18.30
2023-01-25T00:09:04.500Z,18.20
2023-01-25T00:09:14.594Z,18.30
2023-01-25T00:09:24.736Z,18.40
2023-01-25T00:09:34.881Z,18.00
2023-01-25T00:09:44.983Z,17.80
2023-01-25T00:09:55.077Z,18.00
2023-01-25T00:10:05.200Z,18.50
2023-01-25T00:10:15.286Z,18.90
2023-01-25T00:10:25.319Z,18.50
2023-01-25T00:10:35.402Z,18.10
2023-01-25T00:10:45.522Z,18.00
2023-01-25T00:10:57.643Z,18.80
2023-01-25T00:11:05.663Z,18.50
2023-01-25T00:11:15.802Z,18.40
2023-01-25T00:11:25.883Z,18.00
2023-01-25T00:11:35.977Z,18.10
2023-01-25T00:11:46.064Z,18.70
2023-01-25T00:11:56.152Z,18.70
2023-01-25T00:12:06.248Z,19.60
2023-01-25T00:12:16.340Z,19.30
2023-01-25T00:12:26.422Z,19.50
2023-01-25T00:12:36.503Z,19.10
2023-01-25T00:12:46.582Z,18.90
2023-01-25T00:12:56.708Z,18.30
2023-01-25T00:13:06.809Z,18.20
2023-01-25T00:13:16.883Z,18.40
2023-01-25T00:13:27.037Z,17.70
2023-01-25T00:13:37.132Z,17.30
2023-01-25T00:13:47.222Z,17.30
2023-01-25T00:13:57.302Z,18.10
2023-01-25T00:14:07.397Z,18.30
2023-01-25T00:14:17.513Z,18.60
2023-01-25T00:14:27.671Z,19.00
2023-01-25T00:14:37.791Z,19.80
2023-01-25T00:14:47.874Z,19.60
2023-01-25T00:14:57.963Z,19.40
2023-01-25T00:15:08.483Z,18.30
2023-01-25T00:15:18.173Z,18.40
2023-01-25T00:15:28.319Z,17.70
2023-01-25T00:15:38.472Z,17.60
2023-01-25T00:15:48.522Z,17.20
2023-01-25T00:15:58.587Z,17.00
2023-01-25T00:16:08.668Z,17.70
2023-01-25T00:16:18.774Z,17.20
2023-01-25T00:16:28.910Z,17.50
2023-01-25T00:16:39.059Z,17.10
2023-01-25T00:16:49.080Z,17.60
2023-01-25T00:16:59.141Z,18.30
2023-01-25T00:17:09.186Z,19.30
2023-01-25T00:17:19.240Z,19.90
2023-01-25T00:17:29.313Z,19.30
2023-01-25T00:17:39.363Z,19.10
2023-01-25T00:17:49.471Z,18.60
2023-01-25T00:17:59.531Z,18.30
2023-01-25T00:18:09.607Z,17.60
2023-01-25T00:18:19.653Z,17.10
2023-01-25T00:18:29.689Z,17.60
2023-01-25T00:18:39.771Z,17.90
2023-01-25T00:18:49.823Z,18.10
2023-01-25T00:18:59.871Z,17.40
2023-01-25T00:19:09.891Z,17.20
2023-01-25T00:19:19.947Z,16.80
2023-01-25T00:19:30.041Z,17.30
2023-01-25T00:19:40.162Z,18.10
2023-01-25T00:19:50.266Z,18.20
2023-01-25T00:20:00.368Z,18.40
2023-01-25T00:20:10.505Z,18.10
2023-01-25T00:20:20.593Z,18.40
2023-01-25T00:20:30.683Z,18.00
2023-01-25T00:20:40.812Z,16.90
2023-01-25T00:20:50.878Z,16.90
2023-01-25T00:21:00.942Z,16.50
2023-01-25T00:21:11.020Z,17.30
2023-01-25T00:21:21.049Z,17.40
2023-01-25T00:21:31.119Z,17.70
2023-01-25T00:21:41.197Z,17.50
2023-01-25T00:21:51.297Z,17.50
2023-01-25T00:22:01.372Z,18.10
2023-01-25T00:22:11.439Z,18.40
2023-01-25T00:22:21.529Z,18.90
2023-01-25T00:22:31.632Z,18.90
2023-01-25T00:22:41.687Z,18.60
2023-01-25T00:22:51.766Z,18.30
2023-01-25T00:23:01.856Z,18.40
2023-01-25T00:23:11.980Z,19.00
2023-01-25T00:23:22.080Z,18.90
2023-01-25T00:23:32.160Z,18.50
2023-01-25T00:23:42.262Z,18.90
2023-01-25T00:23:52.383Z,19.00
2023-01-25T00:24:02.386Z,18.90
2023-01-25T00:24:12.512Z,18.50
2023-01-25T00:24:22.606Z,18.90
2023-01-25T00:24:32.692Z,19.10
2023-01-25T00:24:42.798Z,19.30
2023-01-25T00:24:52.880Z,19.10
2023-01-25T00:25:02.993Z,18.60
2023-01-25T00:25:13.077Z,18.40
2023-01-25T00:25:23.171Z,18.30
2023-01-25T00:25:33.254Z,18.50
2023-01-25T00:25:43.330Z,18.50
2023-01-25T00:25:53.471Z,18.50
2023-01-25T00:26:03.572Z,18.80
2023-01-25T00:26:13.649Z,19.10
2023-01-25T00:26:23.740Z,19.00
2023-01-25T00:26:33.808Z,18.90
2023-01-25T00:26:43.929Z,18.80
2023-01-25T00:26:54.060Z,18.90
2023-01-25T00:27:04.178Z,19.00
2023-01-25T00:27:14.289Z,19.40
2023-01-25T00:27:24.378Z,19.20
2023-01-25T00:27:34.528Z,19.30
2023-01-25T00:27:44.668Z,19.20
2023-01-25T00:27:54.741Z,19.20
2023-01-25T00:28:04.837Z,19.00
2023-01-25T00:28:14.968Z,19.40
2023-01-25T00:28:25.059Z,19.20
2023-01-25T00:28:35.140Z,19.30
2023-01-25T00:28:45.232Z,19.30
2023-01-25T00:28:55.328Z,19.10
2023-01-25T00:29:05.418Z,19.40
2023-01-25T00:29:15.510Z,18.90
2023-01-25T00:29:25.601Z,19.20
2023-01-25T00:29:35.690Z,19.40
2023-01-25T00:29:45.798Z,19.10
2023-01-25T00:29:55.873Z,19.30
2023-01-25T00:30:05.982Z,18.90
2023-01-25T00:30:16.078Z,19.30
2023-01-25T00:30:26.188Z,19.10
2023-01-25T00:30:36.278Z,19.40
2023-01-25T00:30:46.371Z,19.30
2023-01-25T00:30:56.449Z,18.70
2023-01-25T00:31:06.558Z,18.40
2023-01-25T00:31:16.770Z,18.40
2023-01-25T00:31:26.853Z,19.30
2023-01-25T00:31:36.836Z,19.40
2023-01-25T00:31:46.852Z,19.60
2023-01-25T00:31:57.018Z,19.00
2023-01-25T00:32:07.061Z,19.00
2023-01-25T00:32:17.119Z,18.50
2023-01-25T00:32:27.205Z,18.90
2023-01-25T00:32:37.230Z,18.10
2023-01-25T00:32:47.258Z,18.30
2023-01-25T00:32:57.290Z,18.20
2023-01-25T00:33:07.381Z,18.50
2023-01-25T00:33:17.460Z,18.70
2023-01-25T00:33:27.547Z,18.20
2023-01-25T00:33:37.653Z,18.90
2023-01-25T00:33:47.656Z,18.10
2023-01-25T00:33:57.740Z,18.40
2023-01-25T00:34:07.808Z,18.00
2023-01-25T00:34:17.884Z,18.20
2023-01-25T00:34:27.956Z,17.90
2023-01-25T00:34:38.033Z,18.00
2023-01-25T00:34:48.107Z,18.00
2023-01-25T00:34:58.177Z,18.50
2023-01-25T00:35:08.621Z,18.10
2023-01-25T00:35:18.367Z,18.20
2023-01-25T00:35:28.468Z,17.60
2023-01-25T00:35:38.557Z,17.10
2023-01-25T00:35:48.657Z,16.60
2023-01-25T00:35:58.755Z,16.40
2023-01-25T00:36:08.868Z,16.20
2023-01-25T00:36:18.947Z,16.50
2023-01-25T00:36:29.101Z,16.80
2023-01-25T00:36:39.041Z,17.40
2023-01-25T00:36:49.125Z,17.20
2023-01-25T00:36:59.248Z,17.90
2023-01-25T00:37:09.315Z,18.40
2023-01-25T00:37:19.408Z,18.90
2023-01-25T00:37:29.500Z,18.30
2023-01-25T00:37:39.609Z,18.00
2023-01-25T00:37:49.726Z,18.00
2023-01-25T00:37:59.817Z,18.00
2023-01-25T00:38:09.905Z,18.70
2023-01-25T00:38:19.997Z,19.10
2023-01-25T00:38:30.068Z,19.50
2023-01-25T00:38:40.178Z,18.60
2023-01-25T00:38:50.270Z,18.00
2023-01-25T00:39:00.380Z,17.40
2023-01-25T00:39:10.456Z,17.00
2023-01-25T00:39:20.526Z,17.80
2023-01-25T00:39:30.606Z,18.30
2023-01-25T00:39:40.687Z,18.70
2023-01-25T00:39:50.768Z,18.60
2023-01-25T00:40:00.856Z,17.70
2023-01-25T00:40:10.941Z,17.80
2023-01-25T00:40:21.084Z,17.50
2023-01-25T00:40:31.186Z,18.00
2023-01-25T00:40:41.265Z,18.10
2023-01-25T00:40:51.336Z,18.60
2023-01-25T00:41:01.415Z,18.90
2023-01-25T00:41:11.484Z,18.50
2023-01-25T00:41:21.566Z,17.90
2023-01-25T00:41:31.634Z,17.70
2023-01-25T00:41:41.751Z,17.70
2023-01-25T00:41:51.815Z,18.30
2023-01-25T00:42:01.925Z,18.30
2023-01-25T00:42:12.071Z,18.60
2023-01-25T00:42:22.176Z,18.60
2023-01-25T00:42:32.268Z,18.30
2023-01-25T00:42:42.339Z,18.50
2023-01-25T00:42:52.465Z,18.20
2023-01-25T00:43:02.563Z,17.80
2023-01-25T00:43:12.616Z,17.10
2023-01-25T00:43:22.686Z,16.60
2023-01-25T00:43:32.755Z,16.30
2023-01-25T00:43:42.836Z,16.50
2023-01-25T00:43:52.903Z,16.90
2023-01-25T00:44:02.997Z,17.60
2023-01-25T00:44:13.077Z,17.80
2023-01-25T00:44:23.163Z,18.10
2023-01-25T00:44:33.271Z,18.20
2023-01-25T00:44:43.379Z,18.00
2023-01-25T00:44:53.444Z,18.20
2023-01-25T00:45:03.586Z,18.30
2023-01-25T00:45:13.693Z,18.90
2023-01-25T00:45:23.777Z,18.70
2023-01-25T00:45:33.866Z,18.50
2023-01-25T00:45:43.928Z,19.00
2023-01-25T00:45:54.071Z,18.70
2023-01-25T00:46:04.215Z,18.70
2023-01-25T00:46:14.222Z,17.80
2023-01-25T00:46:24.375Z,18.40
2023-01-25T00:46:34.465Z,18.60
2023-01-25T00:46:44.559Z,19.50
2023-01-25T00:46:54.648Z,19.60
2023-01-25T00:47:04.745Z,19.00
2023-01-25T00:47:14.834Z,18.70
2023-01-25T00:47:24.914Z,18.50
2023-01-25T00:47:35.003Z,19.30
2023-01-25T00:47:45.082Z,19.10
2023-01-25T00:47:55.169Z,19.10
2023-01-25T00:48:05.226Z,18.30
2023-01-25T00:48:15.294Z,18.60
2023-01-25T00:48:25.376Z,18.80
2023-01-25T00:48:35.474Z,18.30
2023-01-25T00:48:45.559Z,18.10
2023-01-25T00:48:55.696Z,18.70
2023-01-25T00:49:05.778Z,19.60
2023-01-25T00:49:15.867Z,19.40
2023-01-25T00:49:25.996Z,18.80
2023-01-25T00:49:36.082Z,18.40
2023-01-25T00:49:46.169Z,18.40
2023-01-25T00:49:56.244Z,18.30
2023-01-25T00:50:06.373Z,18.70
2023-01-25T00:50:16.476Z,18.50
2023-01-25T00:50:26.595Z,18.60
2023-01-25T00:50:36.665Z,18.80
2023-01-25T00:50:46.764Z,19.20
2023-01-25T00:50:56.854Z,19.70
2023-01-25T00:51:06.955Z,19.80
2023-01-25T00:51:17.024Z,19.40
2023-01-25T00:51:27.094Z,19.10
2023-01-25T00:51:37.164Z,19.50
2023-01-25T00:51:47.213Z,19.20
2023-01-25T00:51:57.286Z,18.90
2023-01-25T00:52:07.347Z,18.20
2023-01-25T00:52:17.414Z,19.10
2023-01-25T00:52:27.504Z,19.40
2023-01-25T00:52:37.575Z,19.90
2023-01-25T00:52:47.697Z,19.50
2023-01-25T00:52:57.764Z,19.20
2023-01-25T00:53:07.838Z,18.40
2023-01-25T00:53:17.902Z,18.60
2023-01-25T00:53:28.014Z,19.10
2023-01-25T00:53:38.085Z,19.40
2023-01-25T00:53:48.184Z,19.20
2023-01-25T00:53:58.314Z,19.30
2023-01-25T00:54:08.372Z,19.80
2023-01-25T00:54:18.433Z,19.70
2023-01-25T00:54:28.609Z,19.20
2023-01-25T00:54:38.683Z,19.10
2023-01-25T00:54:48.788Z,19.50
2023-01-25T00:54:58.850Z,19.20
2023-01-25T00:55:09.359Z,19.40
2023-01-25T00:55:19.033Z,18.70
2023-01-25T00:55:29.183Z,19.10
2023-01-25T00:55:39.243Z,18.30
2023-01-25T00:55:49.325Z,18.50
2023-01-25T00:55:59.404Z,18.90
2023-01-25T00:56:09.474Z,19.50
2023-01-25T00:56:19.578Z,19.70
2023-01-25T00:56:29.654Z,18.90
2023-01-25T00:56:39.812Z,19.50
2023-01-25T00:56:49.904Z,19.80
2023-01-25T00:57:00.033Z,19.60
2023-01-25T00:57:10.124Z,19.20
2023-01-25T00:57:20.225Z,18.90
2023-01-25T00:57:30.264Z,19.70
2023-01-25T00:57:40.343Z,19.30
2023-01-25T00:57:50.422Z,18.60
2023-01-25T00:58:00.441Z,18.20
2023-01-25T00:58:10.558Z,17.90
2023-01-25T00:58:20.664Z,18.40
2023-01-25T00:58:30.792Z,18.60
2023-01-25T00:58:40.892Z,18.60
2023-01-25T00:58:50.995Z,19.10
2023-01-25T00:59:01.098Z,19.30
2023-01-25T00:59:11.184Z,20.00
2023-01-25T00:59:21.278Z,19.40
2023-01-25T00:59:31.377Z,19.50
2023-01-25T00:59:41.539Z,19.30
2023-01-25T00:59:51.652Z,19.90
2023-01-25T01:00:01.734Z,19.50
2023-01-25T01:00:11.851Z,19.20
2023-01-25T01:00:21.987Z,19.00
2023-01-25T01:00:32.092Z,19.60
2023-01-25T01:00:42.174Z,20.10
2023-01-25T01:00:52.363Z,20.40
2023-01-25T01:01:02.347Z,19.70
2023-01-25T01:01:12.558Z,19.60
2023-01-25T01:01:22.600Z,19.50
2023-01-25T01:01:32.789Z,19.20
2023-01-25T01:01:42.782Z,19.00
2023-01-25T01:01:52.773Z,18.50
2023-01-25T01:02:02.902Z,18.50
2023-01-25T01:02:12.919Z,18.90
2023-01-25T01:02:23.002Z,18.90
2023-01-25T01:02:33.032Z,19.40
2023-01-25T01:02:43.152Z,19.40
2023-01-25T01:02:53.239Z,19.60
2023-01-25T01:03:03.404Z,19.60
2023-01-25T01:03:13.494Z,18.70
2023-01-25T01:03:23.564Z,18.60
2023-01-25T01:03:33.651Z,18.80
2023-01-25T01:03:43.764Z,19.20
2023-01-25T01:03:53.852Z,19.00
2023-01-25T01:04:05.701Z,18.50
2023-01-25T01:04:14.112Z,19.10
2023-01-25T01:04:24.236Z,19.70
2023-01-25T01:04:34.348Z,20.50
2023-01-25T01:04:44.491Z,20.90
2023-01-25T01:04:54.497Z,20.40
2023-01-25T01:05:04.551Z,19.80
2023-01-25T01:05:14.694Z,19.40
2023-01-25T01:05:24.643Z,19.60
2023-01-25T01:05:34.723Z,20.10
2023-01-25T01:05:44.803Z,20.00
2023-01-25T01:05:54.910Z,20.20
2023-01-25T01:06:04.991Z,19.60
2023-01-25T01:06:15.081Z,19.80
2023-01-25T01:06:25.240Z,19.60
2023-01-25T01:06:35.329Z,19.70
2023-01-25T01:06:45.452Z,19.70
2023-01-25T01:06:55.592Z,20.10
2023-01-25T01:07:05.681Z,20.90
2023-01-25T01:07:15.732Z,20.90
2023-01-25T01:07:25.857Z,21.10
2023-01-25T01:07:35.942Z,21.10
2023-01-25T01:07:46.037Z,21.60
2023-01-25T01:07:56.150Z,22.20
2023-01-25T01:08:06.230Z,21.90
2023-01-25T01:08:16.310Z,21.50
2023-01-25T01:08:26.407Z,20.70
2023-01-25T01:08:36.490Z,21.00
2023-01-25T01:08:46.587Z,20.10
2023-01-25T01:08:56.667Z,20.50
2023-01-25T01:09:06.751Z,20.50
2023-01-25T01:09:16.862Z,21.40
2023-01-25T01:09:26.971Z,22.00
2023-01-25T01:09:37.072Z,22.70
2023-01-25T01:09:47.168Z,22.00
2023-01-25T01:09:57.313Z,21.20
2023-01-25T01:10:07.449Z,20.70
2023-01-25T01:10:17.530Z,21.10
2023-01-25T01:10:27.619Z,21.70
2023-01-25T01:10:37.701Z,21.90
2023-01-25T01:10:47.782Z,21.60
2023-01-25T01:10:57.882Z,20.90
2023-01-25T01:11:08.030Z,20.90
2023-01-25T01:11:18.121Z,21.00
2023-01-25T01:11:28.124Z,21.70
2023-01-25T01:11:38.211Z,22.10
2023-01-25T01:11:48.335Z,22.60
2023-01-25T01:11:58.422Z,21.20
2023-01-25T01:12:08.511Z,21.10
2023-01-25T01:12:18.600Z,20.90
2023-01-25T01:12:28.691Z,21.00
2023-01-25T01:12:38.805Z,21.00
2023-01-25T01:12:48.890Z,21.00
2023-01-25T01:12:58.979Z,21.00
2023-01-25T01:13:09.068Z,20.60
2023-01-25T01:13:19.155Z,20.20
2023-01-25T01:13:29.240Z,21.10
2023-01-25T01:13:39.353Z,22.00
2023-01-25T01:13:49.441Z,21.90
2023-01-25T01:13:59.535Z,21.40
2023-01-25T01:14:09.631Z,20.40
2023-01-25T01:14:19.631Z,20.80
2023-01-25T01:14:29.754Z,20.70
2023-01-25T01:14:39.829Z,20.50
2023-01-25T01:14:49.930Z,20.60
2023-01-25T01:15:00.027Z,20.70
2023-01-25T01:15:10.262Z,20.90
2023-01-25T01:15:20.241Z,21.30
2023-01-25T01:15:30.308Z,21.70
2023-01-25T01:15:40.410Z,21.20
2023-01-25T01:15:50.499Z,20.70
2023-01-25T01:16:00.578Z,20.80
2023-01-25T01:16:10.691Z,21.10
2023-01-25T01:16:20.769Z,21.20
2023-01-25T01:16:30.916Z,21.70
2023-01-25T01:16:41.101Z,22.00
2023-01-25T01:16:51.269Z,21.30
2023-01-25T01:17:01.299Z,21.40
2023-01-25T01:17:11.378Z,21.70
2023-01-25T01:17:21.472Z,22.80
2023-01-25T01:17:31.549Z,23.10
2023-01-25T01:17:41.691Z,22.30
2023-01-25T01:17:51.794Z,21.70
2023-01-25T01:18:01.889Z,20.80
2023-01-25T01:18:11.970Z,21.90
2023-01-25T01:18:22.070Z,22.30
2023-01-25T01:18:32.143Z,21.80
2023-01-25T01:18:42.250Z,21.20
2023-01-25T01:18:52.339Z,21.00
2023-01-25T01:19:02.516Z,21.40
2023-01-25T01:19:13.017Z,21.00
2023-01-25T01:19:22.739Z,20.80
2023-01-25T01:19:32.860Z,20.70
2023-01-25T01:19:42.963Z,21.80
2023-01-25T01:19:53.073Z,21.40
2023-01-25T01:20:03.186Z,20.70
2023-01-25T01:20:13.318Z,20.20
2023-01-25T01:20:23.458Z,20.20
2023-01-25T01:20:33.549Z,19.40
2023-01-25T01:20:43.628Z,19.90
2023-01-25T01:20:53.739Z,20.60
2023-01-25T01:21:03.805Z,21.40
2023-01-25T01:21:13.917Z,21.30
2023-01-25T01:21:24.041Z,21.00
2023-01-25T01:21:34.153Z,21.20
2023-01-25T01:21:44.228Z,20.50
2023-01-25T01:21:54.321Z,20.60
2023-01-25T01:22:04.398Z,21.20
2023-01-25T01:22:14.485Z,20.80
2023-01-25T01:22:24.568Z,20.40
2023-01-25T01:22:34.661Z,20.30
2023-01-25T01:22:44.762Z,21.10
2023-01-25T01:22:54.858Z,21.10
2023-01-25T01:23:04.952Z,20.70
2023-01-25T01:23:15.028Z,19.90
2023-01-25T01:23:25.129Z,19.80
2023-01-25T01:23:35.231Z,20.20
2023-01-25T01:23:45.359Z,20.90
2023-01-25T01:23:55.527Z,20.80
2023-01-25T01:24:05.539Z,20.50
2023-01-25T01:24:15.720Z,20.60
2023-01-25T01:24:25.826Z,20.80
2023-01-25T01:24:35.902Z,20.70
2023-01-25T01:24:45.985Z,20.90
2023-01-25T01:24:56.086Z,20.80
2023-01-25T01:25:06.712Z,20.90
2023-01-25T01:25:16.377Z,20.60
2023-01-25T01:25:26.458Z,20.20
2023-01-25T01:25:36.548Z,20.80
2023-01-25T01:25:46.626Z,21.20
2023-01-25T01:25:56.718Z,21.90
2023-01-25T01:26:06.806Z,21.20
2023-01-25T01:26:16.893Z,20.80
2023-01-25T01:26:27.014Z,20.90
2023-01-25T01:26:37.112Z,21.20
2023-01-25T01:26:47.193Z,21.50
2023-01-25T01:26:57.276Z,21.50
2023-01-25T01:27:07.364Z,21.00
2023-01-25T01:27:17.460Z,21.40
2023-01-25T01:27:27.537Z,21.50
2023-01-25T01:27:37.647Z,21.60
2023-01-25T01:27:47.745Z,21.10
2023-01-25T01:27:57.835Z,21.60
2023-01-25T01:28:07.917Z,22.90
2023-01-25T01:28:18.039Z,22.80
2023-01-25T01:28:28.139Z,22.80
2023-01-25T01:28:38.237Z,21.70
2023-01-25T01:28:48.250Z,21.80
2023-01-25T01:28:58.320Z,21.50
2023-01-25T01:29:08.430Z,21.60
2023-01-25T01:29:18.526Z,21.60
2023-01-25T01:29:28.620Z,21.40
2023-01-25T01:29:38.707Z,21.60
2023-01-25T01:29:48.767Z,20.90
2023-01-25T01:29:58.866Z,21.40
2023-01-25T01:30:08.947Z,20.80
2023-01-25T01:30:19.035Z,20.70
2023-01-25T01:30:29.127Z,20.60
2023-01-25T01:30:39.227Z,21.00
2023-01-25T01:30:49.304Z,22.00
2023-01-25T01:30:59.406Z,22.20
2023-01-25T01:31:09.511Z,22.20
2023-01-25T01:31:19.665Z,23.10
2023-01-25T01:31:29.806Z,23.10
2023-01-25T01:31:39.856Z,22.70
2023-01-25T01:31:49.940Z,21.90
2023-01-25T01:32:00.028Z,22.10
2023-01-25T01:32:10.130Z,22.50
2023-01-25T01:32:20.248Z,23.10
2023-01-25T01:32:30.325Z,22.90
2023-01-25T01:32:40.407Z,22.30
2023-01-25T01:32:50.523Z,21.40
2023-01-25T01:33:00.436Z,21.60
2023-01-25T01:33:10.532Z,22.00
2023-01-25T01:33:20.626Z,21.80
2023-01-25T01:33:30.716Z,20.50
2023-01-25T01:33:40.857Z,20.20
2023-01-25T01:33:50.976Z,20.60
2023-01-25T01:34:01.124Z,21.70
2023-01-25T01:34:11.270Z,21.90
2023-01-25T01:34:21.343Z,22.20
2023-01-25T01:34:31.435Z,22.00
2023-01-25T01:34:41.517Z,22.00
2023-01-25T01:34:51.615Z,21.80
2023-01-25T01:35:01.735Z,21.90
2023-01-25T01:35:11.835Z,21.50
2023-01-25T01:35:21.937Z,21.30
2023-01-25T01:35:32.046Z,21.40
2023-01-25T01:35:42.136Z,22.50
2023-01-25T01:35:52.232Z,22.50
2023-01-25T01:36:02.317Z,22.10
2023-01-25T01:36:12.414Z,21.80
2023-01-25T01:36:22.493Z,21.60
2023-01-25T01:36:32.596Z,22.10
2023-01-25T01:36:42.719Z,21.90
2023-01-25T01:36:52.785Z,22.30
2023-01-25T01:37:02.926Z,22.20
2023-01-25T01:37:13.100Z,21.90
2023-01-25T01:37:23.186Z,22.40
2023-01-25T01:37:33.282Z,23.00
2023-01-25T01:37:43.367Z,22.70
2023-01-25T01:37:53.465Z,21.80
2023-01-25T01:38:03.561Z,21.30
2023-01-25T01:38:13.709Z,22.20
2023-01-25T01:38:23.808Z,22.60
2023-01-25T01:38:33.898Z,22.40
2023-01-25T01:38:44.026Z,21.60
2023-01-25T01:38:54.024Z,21.80
2023-01-25T01:39:04.108Z,21.30
2023-01-25T01:39:14.183Z,21.50
2023-01-25T01:39:24.259Z,21.90
2023-01-25T01:39:34.418Z,22.40
2023-01-25T01:39:44.517Z,22.30
2023-01-25T01:39:54.601Z,22.00
2023-01-25T01:40:04.686Z,22.20
2023-01-25T01:40:14.794Z,22.40
2023-01-25T01:40:25.087Z,22.30
2023-01-25T01:40:35.084Z,22.10
2023-01-25T01:40:45.184Z,22.20
2023-01-25T01:40:55.269Z,21.90
2023-01-25T01:41:05.375Z,22.30
2023-01-25T01:41:15.464Z,23.20
2023-01-25T01:41:25.543Z,23.70
2023-01-25T01:41:35.621Z,23.80
2023-01-25T01:41:45.710Z,23.40
2023-01-25T01:41:55.803Z,23.30
2023-01-25T01:42:05.889Z,22.70
2023-01-25T01:42:15.964Z,23.10
2023-01-25T01:42:26.045Z,22.90
2023-01-25T01:42:36.135Z,23.30
2023-01-25T01:42:46.254Z,23.30
2023-01-25T01:42:56.342Z,23.70
2023-01-25T01:43:06.434Z,22.70
2023-01-25T01:43:16.515Z,22.30
2023-01-25T01:43:26.616Z,22.50
2023-01-25T01:43:36.684Z,23.30
2023-01-25T01:43:46.805Z,23.40
2023-01-25T01:43:56.865Z,23.70
2023-01-25T01:44:06.941Z,23.40
2023-01-25T01:44:17.035Z,23.70
2023-01-25T01:44:27.124Z,23.50
2023-01-25T01:44:37.203Z,23.70
2023-01-25T01:44:47.278Z,24.30
2023-01-25T01:44:57.381Z,24.00
2023-01-25T01:45:07.792Z,24.30
2023-01-25T01:45:17.500Z,24.00
2023-01-25T01:45:27.584Z,24.20
2023-01-25T01:45:37.695Z,24.10
2023-01-25T01:45:47.857Z,24.30
2023-01-25T01:45:58.154Z,24.20
2023-01-25T01:46:08.103Z,23.90
2023-01-25T01:46:18.216Z,23.50
2023-01-25T01:46:28.338Z,23.30
2023-01-25T01:46:38.429Z,23.10
2023-01-25T01:46:48.513Z,23.10
2023-01-25T01:46:58.594Z,23.60
2023-01-25T01:47:08.704Z,24.00
2023-01-25T01:47:18.748Z,23.80
2023-01-25T01:47:28.824Z,23.20
2023-01-25T01:47:38.840Z,23.50
2023-01-25T01:47:48.891Z,23.80
2023-01-25T01:47:58.933Z,24.00
2023-01-25T01:48:09.003Z,23.60
2023-01-25T01:48:19.059Z,23.90
2023-01-25T01:48:29.085Z,24.50
2023-01-25T01:48:39.199Z,24.20
2023-01-25T01:48:49.239Z,24.30
2023-01-25T01:48:59.265Z,24.00
2023-01-25T01:49:09.311Z,25.40
2023-01-25T01:49:19.346Z,25.00
2023-01-25T01:49:29.396Z,25.00
2023-01-25T01:49:39.450Z,24.20
2023-01-25T01:49:49.483Z,23.90
2023-01-25T01:49:59.531Z,24.90
2023-01-25T01:50:09.562Z,23.90
2023-01-25T01:50:19.732Z,23.60
2023-01-25T01:50:29.765Z,23.40
2023-01-25T01:50:39.795Z,23.90
2023-01-25T01:50:49.834Z,23.80
2023-01-25T01:50:59.875Z,23.40
2023-01-25T01:51:09.923Z,24.10
2023-01-25T01:51:19.976Z,23.90
2023-01-25T01:51:30.015Z,24.20
2023-01-25T01:51:40.098Z,23.60
2023-01-25T01:51:50.205Z,22.80
2023-01-25T01:52:00.292Z,22.00
2023-01-25T01:52:10.384Z,21.70
2023-01-25T01:52:20.491Z,23.50
2023-01-25T01:52:30.492Z,24.10
2023-01-25T01:52:40.594Z,24.80
2023-01-25T01:52:50.684Z,24.50
2023-01-25T01:53:00.768Z,24.30
2023-01-25T01:53:10.868Z,23.20
2023-01-25T01:53:20.944Z,22.90
2023-01-25T01:53:31.053Z,22.40
2023-01-25T01:53:41.212Z,23.30
2023-01-25T01:53:51.322Z,23.90
2023-01-25T01:54:01.438Z,24.20
2023-01-25T01:54:11.521Z,24.50
2023-01-25T01:54:21.602Z,23.60
2023-01-25T01:54:31.757Z,24.30
2023-01-25T01:54:41.842Z,23.60
2023-01-25T01:54:51.925Z,24.40
2023-01-25T01:55:02.022Z,23.30
2023-01-25T01:55:12.170Z,23.90
2023-01-25T01:55:22.252Z,23.70
2023-01-25T01:55:32.342Z,24.60
2023-01-25T01:55:42.424Z,24.10
2023-01-25T01:55:52.512Z,24.00
2023-01-25T01:56:02.591Z,23.60
2023-01-25T01:56:12.698Z,23.10
2023-01-25T01:56:22.792Z,23.50
2023-01-25T01:56:32.923Z,23.30
2023-01-25T01:56:43.025Z,23.90
2023-01-25T01:56:53.132Z,23.60
2023-01-25T01:57:03.277Z,24.30
2023-01-25T01:57:13.333Z,24.30
2023-01-25T01:57:23.341Z,24.30
2023-01-25T01:57:33.364Z,24.30
2023-01-25T01:57:43.450Z,24.60
2023-01-25T01:57:53.556Z,26.10
2023-01-25T01:58:03.645Z,26.10
2023-01-25T01:58:13.776Z,25.90
2023-01-25T01:58:23.830Z,25.00
2023-01-25T01:58:33.932Z,24.10
2023-01-25T01:58:44.001Z,23.80
2023-01-25T01:58:54.012Z,23.10
2023-01-25T01:59:04.098Z,23.50
2023-01-25T01:59:14.189Z,23.20
2023-01-25T01:59:24.255Z,24.30
2023-01-25T01:59:34.356Z,23.70
2023-01-25T01:59:44.423Z,23.70
2023-01-25T01:59:54.511Z,22.90
2023-01-25T02:00:04.610Z,23.60
2023-01-25T02:00:14.771Z,24.30
2023-01-25T02:00:24.865Z,23.90
2023-01-25T02:00:35.090Z,23.40
2023-01-25T02:00:45.006Z,23.90
2023-01-25T02:00:55.129Z,23.60
2023-01-25T02:01:05.301Z,24.00
2023-01-25T02:01:15.460Z,23.50
2023-01-25T02:01:25.463Z,23.30
2023-01-25T02:01:35.488Z,22.80
2023-01-25T02:01:45.646Z,22.30
2023-01-25T02:01:55.582Z,23.10
2023-01-25T02:02:05.709Z,23.30
2023-01-25T02:02:15.821Z,23.60
2023-01-25T02:02:25.987Z,23.50
2023-01-25T02:02:36.089Z,23.30
2023-01-25T02:02:46.274Z,23.10
2023-01-25T02:02:56.373Z,23.40
2023-01-25T02:03:06.352Z,23.50
2023-01-25T02:03:16.452Z,23.70
2023-01-25T02:03:26.562Z,23.40
2023-01-25T02:03:36.681Z,23.30
2023-01-25T02:03:46.789Z,23.30
2023-01-25T02:03:56.881Z,23.80
2023-01-25T02:04:06.961Z,24.50
2023-01-25T02:04:17.051Z,25.10
2023-01-25T02:04:27.143Z,25.30
2023-01-25T02:04:37.188Z,25.50
2023-01-25T02:04:47.268Z,25.00
2023-01-25T02:04:57.345Z,24.80
2023-01-25T02:05:07.738Z,24.20
2023-01-25T02:05:17.502Z,24.10
2023-01-25T02:05:27.606Z,24.10
2023-01-25T02:05:37.709Z,24.70
2023-01-25T02:05:47.791Z,25.30
2023-01-25T02:05:57.910Z,25.30
2023-01-25T02:06:08.012Z,24.50
2023-01-25T02:06:18.113Z,24.40
2023-01-25T02:06:28.207Z,24.60
2023-01-25T02:06:38.281Z,25.30
2023-01-25T02:06:48.359Z,25.90
2023-01-25T02:06:58.441Z,25.60
2023-01-25T02:07:08.478Z,24.70
2023-01-25T02:07:18.559Z,23.70
2023-01-25T02:07:28.653Z,23.50
2023-01-25T02:07:38.743Z,23.90
2023-01-25T02:07:48.857Z,24.10
2023-01-25T02:07:58.960Z,24.50
2023-01-25T02:08:09.032Z,24.20
2023-01-25T02:08:19.138Z,24.80
2023-01-25T02:08:29.219Z,24.30
2023-01-25T02:08:39.309Z,24.60
2023-01-25T02:08:49.389Z,23.60
2023-01-25T02:08:59.489Z,23.90
2023-01-25T02:09:09.571Z,23.00
2023-01-25T02:09:19.661Z,23.50
2023-01-25T02:09:29.748Z,24.20
2023-01-25T02:09:39.847Z,25.10
2023-01-25T02:09:49.931Z,25.60
2023-01-25T02:10:00.023Z,24.80